Time;durP1;ratioP1;P1;durP2;ratioP2;P2;SDS_P1;SDS_P2;PMS_P1;PMS_P2;Temp;Humidity;BMP_temperature;BMP_pressure;BME280_temperature;BME280_humidity;BME280_pressure;Samples;Min_cycle;Max_cycle;Signal;HPM_P1;HPM_P2
2023/05/23 00:02:23;;;;;;;16.10;14.50;;;19.70;99.90;;;;;;5013207;28;20118;-46
2023/05/23 00:05:09;;;;;;;16.50;14.32;;;19.70;99.90;;;;;;5014433;28;20026;-51
2023/05/23 00:07:55;;;;;;;17.33;15.10;;;19.60;99.90;;;;;;5013992;28;20097;-49
2023/05/23 00:10:41;;;;;;;16.38;14.68;;;19.60;99.90;;;;;;5012820;28;20053;-48
2023/05/23 00:13:27;;;;;;;16.73;14.95;;;19.60;99.90;;;;;;5014395;28;20092;-48
2023/05/23 00:16:13;;;;;;;16.80;14.10;;;19.50;99.90;;;;;;5013785;28;20026;-50
2023/05/23 00:19:00;;;;;;;19.40;16.20;;;19.50;99.90;;;;;;4999368;28;20513;-50
2023/05/23 00:21:47;;;;;;;18.90;16.08;;;19.60;99.90;;;;;;5013070;28;20045;-48
2023/05/23 00:24:33;;;;;;;16.40;14.70;;;19.60;99.90;;;;;;5012909;28;20117;-48
2023/05/23 00:27:19;;;;;;;17.40;15.23;;;19.70;99.90;;;;;;5013393;28;20120;-49
2023/05/23 00:30:05;;;;;;;15.32;13.82;;;19.70;99.90;;;;;;5013634;28;20417;-45
2023/05/23 00:32:53;;;;;;;16.35;14.55;;;19.70;99.90;;;;;;5013615;28;20129;-48
2023/05/23 00:35:40;;;;;;;15.85;14.15;;;19.70;99.90;;;;;;5013080;28;20029;-47
2023/05/23 00:38:27;;;;;;;15.18;13.57;;;19.80;99.90;;;;;;5013640;28;20040;-48
2023/05/23 00:41:13;;;;;;;16.02;14.27;;;19.80;99.90;;;;;;5014952;28;20112;-46
2023/05/23 00:43:59;;;;;;;14.93;13.35;;;19.90;99.90;;;;;;5014006;28;20100;-45
2023/05/23 00:46:49;;;;;;;15.52;13.70;;;19.90;99.90;;;;;;5012354;28;20160;-47
2023/05/23 00:49:35;;;;;;;16.30;13.80;;;20.00;99.90;;;;;;5013875;28;20033;-46
2023/05/23 00:52:21;;;;;;;15.55;13.57;;;20.10;99.90;;;;;;5011638;28;20494;-45
2023/05/23 00:55:08;;;;;;;15.52;14.02;;;20.10;99.90;;;;;;5012051;28;20034;-45
2023/05/23 00:57:56;;;;;;;17.13;14.43;;;19.90;99.90;;;;;;5012908;28;20509;-48
2023/05/23 01:00:43;;;;;;;15.85;14.35;;;19.70;99.90;;;;;;5013086;28;20487;-46
2023/05/23 01:03:29;;;;;;;15.85;14.25;;;19.80;99.90;;;;;;5012870;28;20041;-47
2023/05/23 01:06:16;;;;;;;16.90;15.15;;;19.70;99.90;;;;;;5013151;28;20062;-48
2023/05/23 01:09:03;;;;;;;18.02;15.60;;;19.80;99.90;;;;;;5015881;28;20045;-45
2023/05/23 01:12:14;;;;;;;20.67;15.80;;;19.80;99.90;;;;;;4998738;28;20084;-46
2023/05/23 01:15:08;;;;;;;15.93;14.45;;;19.50;99.90;;;;;;5012299;28;20030;-46
2023/05/23 01:18:00;;;;;;;18.35;16.55;;;19.50;99.90;;;;;;5013735;28;20057;-46
2023/05/23 01:20:49;;;;;;;16.52;14.88;;;19.50;99.90;;;;;;5013405;28;20442;-47
2023/05/23 01:23:46;;;;;;;16.67;15.05;;;19.40;99.90;;;;;;5011170;28;20026;-47
2023/05/23 01:27:02;;;;;;;16.00;14.40;;;19.40;99.90;;;;;;5012103;28;20030;-48
2023/05/23 01:29:54;;;;;;;17.63;15.98;;;19.40;99.90;;;;;;5013252;28;20025;-45
2023/05/23 01:32:42;;;;;;;17.17;15.35;;;19.20;99.90;;;;;;5012551;28;20037;-48
2023/05/23 01:35:28;;;;;;;15.48;14.07;;;19.30;99.90;;;;;;5011863;28;20041;-46
2023/05/23 01:38:14;;;;;;;17.48;15.52;;;19.30;99.90;;;;;;5012713;28;20559;-48
2023/05/23 01:41:00;;;;;;;17.73;15.95;;;19.30;99.90;;;;;;5012925;28;20482;-46
2023/05/23 01:43:46;;;;;;;17.65;15.13;;;19.30;99.90;;;;;;5012795;28;20030;-46
2023/05/23 01:46:34;;;;;;;17.92;15.50;;;19.40;99.90;;;;;;5012975;28;20421;-47
2023/05/23 01:49:22;;;;;;;17.35;15.65;;;19.30;99.90;;;;;;5012462;28;20030;-48
2023/05/23 01:52:10;;;;;;;16.83;14.80;;;19.30;99.90;;;;;;5001126;28;20105;-46
2023/05/23 01:54:58;;;;;;;17.17;15.05;;;19.30;99.90;;;;;;5011591;28;20030;-47
2023/05/23 01:57:48;;;;;;;15.50;13.73;;;19.20;99.90;;;;;;5011892;28;20510;-52
2023/05/23 02:00:34;;;;;;;16.10;14.45;;;19.20;99.90;;;;;;5011692;28;20103;-46
2023/05/23 02:03:20;;;;;;;16.40;14.70;;;19.20;99.90;;;;;;5011396;28;20041;-45
2023/05/23 02:06:06;;;;;;;15.25;13.80;;;19.10;99.90;;;;;;5011563;28;20046;-45
2023/05/23 02:08:52;;;;;;;15.88;14.10;;;19.20;99.90;;;;;;5010766;28;20057;-46
2023/05/23 02:11:38;;;;;;;16.45;14.73;;;19.10;99.90;;;;;;5006640;28;20084;-50
2023/05/23 02:14:25;;;;;;;15.68;14.20;;;19.00;99.90;;;;;;5011129;28;20449;-48
2023/05/23 02:17:11;;;;;;;15.57;13.95;;;19.00;99.90;;;;;;5009826;28;20465;-49
2023/05/23 02:19:57;;;;;;;15.80;14.23;;;19.00;99.90;;;;;;5009569;28;20448;-48
2023/05/23 02:22:43;;;;;;;17.88;15.35;;;18.80;99.90;;;;;;5012241;28;20041;-47
2023/05/23 02:25:29;;;;;;;17.55;15.85;;;18.70;99.90;;;;;;5012553;28;20034;-47
2023/05/23 02:28:15;;;;;;;18.33;16.45;;;18.70;99.90;;;;;;5012302;28;20080;-46
2023/05/23 02:31:01;;;;;;;17.35;15.60;;;18.70;99.90;;;;;;5012224;28;20037;-48
2023/05/23 02:33:47;;;;;;;19.35;17.45;;;18.50;99.90;;;;;;5012023;28;20026;-44
2023/05/23 02:36:33;;;;;;;17.75;16.05;;;18.60;99.90;;;;;;5011478;28;20063;-44
2023/05/23 02:39:19;;;;;;;18.83;16.92;;;18.70;99.90;;;;;;5012124;28;20026;-47
2023/05/23 02:42:06;;;;;;;20.92;18.17;;;18.60;99.90;;;;;;5011246;28;20406;-48
2023/05/23 02:44:52;;;;;;;19.15;17.38;;;18.70;99.90;;;;;;4999850;28;20038;-46
2023/05/23 02:47:38;;;;;;;19.90;17.95;;;18.60;99.90;;;;;;5013202;28;20030;-44
2023/05/23 02:50:24;;;;;;;22.17;19.83;;;18.30;99.90;;;;;;5009316;28;20033;-47
2023/05/23 02:53:10;;;;;;;22.30;20.20;;;18.30;99.90;;;;;;5005471;28;20038;-46
2023/05/23 02:55:56;;;;;;;22.98;20.48;;;18.10;99.90;;;;;;5011271;28;20026;-47
2023/05/23 02:58:42;;;;;;;21.88;19.67;;;18.00;99.90;;;;;;5004978;28;20037;-45
2023/05/23 03:01:28;;;;;;;22.08;19.85;;;18.00;99.90;;;;;;5005889;28;20038;-44
2023/05/23 03:04:14;;;;;;;21.65;19.45;;;18.00;99.90;;;;;;5004156;28;20023;-46
2023/05/23 03:07:02;;;;;;;22.95;20.65;;;17.80;99.90;;;;;;4995532;28;20048;-47
2023/05/23 03:09:48;;;;;;;22.95;20.42;;;17.80;99.90;;;;;;5013787;28;20088;-48
2023/05/23 03:12:34;;;;;;;21.58;19.48;;;17.80;99.90;;;;;;5014486;28;20505;-46
2023/05/23 03:15:20;;;;;;;20.77;18.85;;;17.70;99.90;;;;;;5014871;28;20058;-47
2023/05/23 03:18:06;;;;;;;20.67;18.73;;;17.70;99.90;;;;;;5016167;28;20669;-45
2023/05/23 03:20:52;;;;;;;21.45;19.17;;;17.90;99.90;;;;;;5015821;28;20088;-46
2023/05/23 03:23:38;;;;;;;21.55;19.38;;;18.00;99.90;;;;;;5012756;28;20049;-47
2023/05/23 03:26:24;;;;;;;21.95;19.85;;;17.90;99.90;;;;;;5027617;28;20033;-49
2023/05/23 03:29:10;;;;;;;21.70;19.40;;;17.80;99.90;;;;;;4997311;28;20038;-48
2023/05/23 03:31:56;;;;;;;19.90;18.00;;;17.70;99.90;;;;;;4995964;28;20453;-48
2023/05/23 03:34:42;;;;;;;21.08;18.92;;;17.80;99.90;;;;;;5000008;28;20036;-46
2023/05/23 03:37:27;;;;;;;21.70;19.60;;;17.60;99.90;;;;;;5013760;28;20096;-49
2023/05/23 03:40:13;;;;;;;21.52;19.33;;;17.70;99.90;;;;;;5015212;28;20061;-46
2023/05/23 03:43:04;;;;;;;22.00;19.73;;;17.50;99.90;;;;;;5015043;28;20057;-48
2023/05/23 03:45:50;;;;;;;21.17;18.98;;;17.50;99.90;;;;;;5014039;28;20029;-47
2023/05/23 03:48:36;;;;;;;20.00;18.10;;;17.50;99.90;;;;;;5013831;28;20030;-46
2023/05/23 03:51:23;;;;;;;22.85;19.70;;;17.50;99.90;;;;;;4995841;28;20033;-47
2023/05/23 03:54:08;;;;;;;21.83;19.77;;;17.50;99.90;;;;;;5009970;28;20088;-47
2023/05/23 03:56:54;;;;;;;21.38;19.17;;;17.40;99.90;;;;;;5014096;28;20056;-46
2023/05/23 03:59:40;;;;;;;20.48;18.48;;;17.30;99.90;;;;;;5012564;28;20105;-49
2023/05/23 04:02:26;;;;;;;21.70;19.60;;;17.40;99.90;;;;;;5014487;28;20042;-52
2023/05/23 04:05:12;;;;;;;23.50;19.23;;;17.50;99.90;;;;;;5014475;28;20026;-47
2023/05/23 04:08:00;;;;;;;20.00;18.10;;;17.50;99.90;;;;;;5014626;28;20486;-46
2023/05/23 04:10:45;;;;;;;20.80;18.90;;;17.50;99.90;;;;;;5013459;28;20029;-47
2023/05/23 04:13:32;;;;;;;20.50;18.40;;;17.40;99.90;;;;;;5014358;28;20022;-47
2023/05/23 04:16:18;;;;;;;19.77;17.80;;;17.40;99.90;;;;;;5013464;28;20022;-50
2023/05/23 04:19:04;;;;;;;21.33;19.10;;;17.50;99.90;;;;;;5014601;28;20402;-47
2023/05/23 04:21:50;;;;;;;21.27;19.15;;;17.60;99.90;;;;;;5013405;28;20030;-48
2023/05/23 04:24:37;;;;;;;23.35;20.90;;;17.20;99.90;;;;;;5014549;28;20443;-48
2023/05/23 04:27:24;;;;;;;23.30;20.90;;;17.00;99.90;;;;;;5014286;28;20117;-49
2023/05/23 04:30:11;;;;;;;22.17;19.85;;;17.00;99.90;;;;;;5012858;28;20030;-47
2023/05/23 04:32:58;;;;;;;21.77;19.58;;;17.00;99.90;;;;;;5013862;28;20033;-48
2023/05/23 04:35:44;;;;;;;22.90;20.65;;;17.10;99.90;;;;;;5012099;28;20498;-50
2023/05/23 04:38:30;;;;;;;23.33;20.90;;;17.10;99.90;;;;;;5012818;28;20030;-47
2023/05/23 04:41:22;;;;;;;23.30;20.80;;;16.80;99.90;;;;;;5013498;28;20458;-47
2023/05/23 04:44:08;;;;;;;23.65;21.35;;;16.90;99.90;;;;;;5017664;28;20034;-48
2023/05/23 04:46:55;;;;;;;22.95;20.80;;;16.90;99.90;;;;;;5014340;28;20117;-48
2023/05/23 04:49:42;;;;;;;23.27;20.88;;;16.90;99.90;;;;;;5013982;28;20116;-48
2023/05/23 04:52:29;;;;;;;23.08;20.77;;;17.10;99.90;;;;;;5012037;28;20034;-47
2023/05/23 04:55:15;;;;;;;22.08;19.98;;;17.10;99.90;;;;;;5013548;28;20105;-49
2023/05/23 04:58:02;;;;;;;21.42;19.30;;;17.30;99.90;;;;;;5012734;28;20049;-47
2023/05/23 05:00:48;;;;;;;23.38;19.85;;;17.40;99.90;;;;;;5013757;28;20033;-47
2023/05/23 05:03:34;;;;;;;21.70;19.70;;;17.40;99.90;;;;;;5013389;28;20034;-49
2023/05/23 05:06:20;;;;;;;21.85;19.73;;;17.60;99.90;;;;;;5012331;28;20061;-51
2023/05/23 05:09:06;;;;;;;22.27;19.90;;;17.60;99.90;;;;;;5012667;28;20164;-50
2023/05/23 05:11:52;;;;;;;24.92;22.20;;;17.50;99.90;;;;;;5013413;28;20033;-48
2023/05/23 05:14:38;;;;;;;23.85;21.33;;;17.50;99.90;;;;;;5013316;28;20037;-47
2023/05/23 05:17:24;;;;;;;23.77;21.17;;;17.30;99.90;;;;;;5012972;28;20434;-47
2023/05/23 05:20:10;;;;;;;24.38;21.77;;;17.40;99.90;;;;;;5012404;28;20030;-49
2023/05/23 05:22:57;;;;;;;23.75;19.95;;;17.30;99.90;;;;;;5013228;28;20495;-49
2023/05/23 05:25:43;;;;;;;27.77;22.38;;;17.40;99.90;;;;;;5013333;28;20095;-48
2023/05/23 05:28:29;;;;;;;25.23;22.67;;;17.30;99.90;;;;;;5012081;28;20114;-48
2023/05/23 05:31:15;;;;;;;27.77;23.20;;;17.10;99.90;;;;;;5014035;28;20033;-48
2023/05/23 05:34:01;;;;;;;23.60;21.20;;;17.10;99.90;;;;;;5013562;28;20056;-50
2023/05/23 05:36:47;;;;;;;25.42;22.73;;;17.20;99.90;;;;;;5013325;28;20026;-48
2023/05/23 05:39:33;;;;;;;26.00;23.30;;;17.10;99.90;;;;;;5012162;28;20030;-50
2023/05/23 05:42:20;;;;;;;26.30;22.80;;;17.20;99.90;;;;;;5012821;28;20022;-49
2023/05/23 05:45:06;;;;;;;25.15;22.00;;;17.20;99.90;;;;;;5011593;28;20024;-50
2023/05/23 05:47:52;;;;;;;25.95;22.90;;;17.30;99.90;;;;;;5012911;28;20033;-47
2023/05/23 05:50:38;;;;;;;27.02;22.92;;;17.40;99.90;;;;;;5012844;28;20064;-47
2023/05/23 05:53:24;;;;;;;26.50;22.23;;;17.40;99.90;;;;;;5012989;28;20026;-47
2023/05/23 05:56:10;;;;;;;26.10;22.80;;;17.50;99.90;;;;;;5011836;28;20425;-47
2023/05/23 05:58:56;;;;;;;26.65;23.05;;;17.40;99.90;;;;;;5011746;28;20065;-49
2023/05/23 06:01:43;;;;;;;24.88;22.25;;;17.40;99.90;;;;;;5012897;28;20125;-48
2023/05/23 06:04:30;;;;;;;25.85;20.58;;;17.30;99.90;;;;;;5011526;28;20041;-50
2023/05/23 06:07:16;;;;;;;26.48;21.52;;;16.80;99.90;;;;;;5012631;28;20030;-48
2023/05/23 06:10:02;;;;;;;25.42;21.90;;;16.60;99.90;;;;;;5011674;28;20027;-47
2023/05/23 06:12:49;;;;;;;24.33;20.63;;;16.50;99.90;;;;;;5012375;28;20380;-46
2023/05/23 06:15:35;;;;;;;24.50;19.92;;;16.40;99.90;;;;;;5011910;28;20502;-47
2023/05/23 06:18:20;;;;;;;24.55;20.15;;;16.50;99.90;;;;;;5011846;28;20147;-47
2023/05/23 06:21:08;;;;;;;24.83;19.65;;;16.30;99.90;;;;;;5011830;28;20065;-49
2023/05/23 06:23:53;;;;;;;26.20;19.38;;;16.30;99.90;;;;;;5011949;28;20041;-48
2023/05/23 06:26:39;;;;;;;25.23;18.42;;;16.30;99.90;;;;;;5011914;28;20038;-48
2023/05/23 06:29:25;;;;;;;20.70;18.08;;;16.50;99.90;;;;;;5013176;28;20026;-49
2023/05/23 06:32:11;;;;;;;20.65;17.75;;;16.40;99.90;;;;;;5012027;28;20513;-49
2023/05/23 06:34:57;;;;;;;21.38;17.50;;;16.50;99.90;;;;;;5011939;28;20800;-48
2023/05/23 06:37:44;;;;;;;20.05;17.15;;;16.50;99.90;;;;;;5011683;28;20041;-48
2023/05/23 06:40:30;;;;;;;19.30;14.95;;;16.70;99.90;;;;;;5012734;28;20421;-48
2023/05/23 06:43:16;;;;;;;21.38;16.52;;;16.80;99.90;;;;;;5011828;28;20045;-46
2023/05/23 06:46:02;;;;;;;17.45;15.25;;;16.80;99.90;;;;;;5012018;28;20034;-48
2023/05/23 06:48:48;;;;;;;21.15;16.25;;;17.00;99.90;;;;;;5011756;28;20033;-49
2023/05/23 06:51:34;;;;;;;21.98;15.50;;;17.00;99.90;;;;;;5011559;28;20023;-47
2023/05/23 06:54:20;;;;;;;18.30;14.43;;;17.00;99.90;;;;;;5012922;28;20079;-47
2023/05/23 06:57:06;;;;;;;16.38;13.68;;;17.30;99.90;;;;;;5012573;28;20026;-48
2023/05/23 06:59:52;;;;;;;17.15;13.52;;;17.30;99.90;;;;;;5010429;28;20045;-47
2023/05/23 07:02:38;;;;;;;16.83;13.70;;;17.30;99.90;;;;;;5012284;28;20045;-47
2023/05/23 07:05:24;;;;;;;17.98;13.75;;;17.20;99.90;;;;;;5012122;28;20112;-46
2023/05/23 07:08:10;;;;;;;18.23;13.05;;;17.10;99.90;;;;;;5012201;28;20034;-47
2023/05/23 07:10:56;;;;;;;14.82;12.93;;;17.10;99.90;;;;;;5012434;28;20502;-48
2023/05/23 07:13:42;;;;;;;15.75;13.80;;;17.10;99.90;;;;;;5012511;28;20095;-50
2023/05/23 07:16:28;;;;;;;15.43;12.70;;;17.10;99.90;;;;;;5011755;28;20104;-48
2023/05/23 07:19:14;;;;;;;16.02;12.88;;;17.10;99.90;;;;;;5010173;28;20088;-48
2023/05/23 07:22:00;;;;;;;17.15;13.25;;;17.10;99.90;;;;;;5011572;28;20041;-47
2023/05/23 07:24:46;;;;;;;14.70;12.88;;;17.20;99.90;;;;;;5011845;28;20038;-52
2023/05/23 07:27:32;;;;;;;16.75;12.43;;;17.20;99.90;;;;;;5011262;28;20117;-47
2023/05/23 07:30:19;;;;;;;13.88;11.98;;;17.10;99.90;;;;;;5010601;28;20072;-49
2023/05/23 07:33:05;;;;;;;14.50;12.43;;;17.30;99.90;;;;;;5011176;28;20192;-47
2023/05/23 07:35:51;;;;;;;17.58;12.43;;;17.30;99.90;;;;;;5013181;28;20080;-50
2023/05/23 07:38:37;;;;;;;13.73;12.27;;;17.30;99.90;;;;;;5015811;28;20030;-45
2023/05/23 07:41:23;;;;;;;15.25;12.73;;;17.30;99.90;;;;;;4999567;28;20128;-45
2023/05/23 07:44:09;;;;;;;14.10;12.57;;;17.30;99.90;;;;;;5015234;28;20048;-45
2023/05/23 07:46:55;;;;;;;17.25;13.43;;;17.20;99.90;;;;;;5014831;28;20022;-46
2023/05/23 07:49:40;;;;;;;16.38;12.48;;;17.20;99.90;;;;;;5013921;28;20061;-49
2023/05/23 07:52:29;;;;;;;13.40;12.00;;;17.30;99.90;;;;;;5014871;28;20057;-47
2023/05/23 07:55:15;;;;;;;13.80;12.40;;;17.40;99.90;;;;;;5013936;28;20113;-46
2023/05/23 07:58:01;;;;;;;13.98;11.93;;;17.40;99.90;;;;;;5013715;28;20038;-46
2023/05/23 08:00:47;;;;;;;15.85;11.70;;;17.50;99.90;;;;;;5014343;28;20032;-48
2023/05/23 08:03:33;;;;;;;14.50;11.38;;;17.50;99.90;;;;;;5014680;28;20026;-48
2023/05/23 08:06:19;;;;;;;16.70;11.90;;;17.40;99.90;;;;;;5014371;28;20040;-46
2023/05/23 08:09:05;;;;;;;14.32;11.10;;;17.60;99.90;;;;;;5014367;28;20033;-46
2023/05/23 08:11:51;;;;;;;12.43;11.00;;;17.70;99.90;;;;;;5014101;28;20182;-49
2023/05/23 08:14:37;;;;;;;14.52;11.95;;;18.00;99.90;;;;;;5014867;28;20037;-46
2023/05/23 08:17:23;;;;;;;13.73;12.38;;;18.10;99.90;;;;;;5014120;28;20105;-48
2023/05/23 08:20:10;;;;;;;13.88;12.27;;;18.00;99.90;;;;;;5014622;28;20033;-49
2023/05/23 08:23:00;;;;;;;14.95;12.27;;;18.20;99.90;;;;;;5014235;28;20131;-47
2023/05/23 08:25:46;;;;;;;13.93;12.52;;;18.10;99.90;;;;;;5016039;28;20037;-45
2023/05/23 08:28:33;;;;;;;15.13;11.90;;;18.10;99.90;;;;;;5017098;28;20026;-45
2023/05/23 08:31:19;;;;;;;15.32;13.30;;;18.20;99.90;;;;;;5014360;28;20034;-48
2023/05/23 08:34:05;;;;;;;14.82;13.00;;;18.30;99.90;;;;;;5014977;28;20033;-48
2023/05/23 08:36:51;;;;;;;13.65;12.18;;;18.10;99.90;;;;;;5012353;28;20495;-48
2023/05/23 08:39:37;;;;;;;13.73;12.15;;;18.10;99.90;;;;;;5014468;28;20065;-50
2023/05/23 08:42:23;;;;;;;15.10;12.73;;;18.10;99.90;;;;;;5013689;28;20033;-50
2023/05/23 08:45:10;;;;;;;15.77;12.70;;;18.00;99.90;;;;;;5013484;28;20026;-51
2023/05/23 08:47:59;;;;;;;13.70;10.98;;;17.90;99.90;;;;;;5013480;28;20506;-50
2023/05/23 08:50:47;;;;;;;13.35;10.90;;;18.10;99.90;;;;;;5013676;28;20022;-47
2023/05/23 08:53:36;;;;;;;12.52;10.32;;;18.00;99.90;;;;;;5012427;28;20498;-46
2023/05/23 08:56:24;;;;;;;12.23;9.93;;;18.00;99.90;;;;;;5013240;28;20467;-47
2023/05/23 08:59:11;;;;;;;11.60;10.05;;;18.10;99.90;;;;;;5007357;28;20068;-48
2023/05/23 09:02:02;;;;;;;11.13;10.00;;;18.00;99.90;;;;;;5013880;28;20507;-46
2023/05/23 09:04:48;;;;;;;11.32;9.77;;;18.00;99.90;;;;;;5014035;28;20067;-47
2023/05/23 09:07:35;;;;;;;11.25;9.73;;;18.00;99.90;;;;;;5012117;28;20620;-46
2023/05/23 09:10:21;;;;;;;11.15;10.05;;;17.90;99.90;;;;;;5013321;28;20108;-47
2023/05/23 09:13:08;;;;;;;13.57;9.77;;;18.00;99.90;;;;;;5012820;28;20032;-44
2023/05/23 09:16:08;;;;;;;11.20;10.05;;;18.10;99.90;;;;;;5014394;28;20018;-51
2023/05/23 09:18:54;;;;;;;10.43;9.32;;;18.10;99.90;;;;;;5012531;28;20018;-50
2023/05/23 09:21:45;;;;;;;9.77;7.80;;;18.40;99.90;;;;;;5012835;28;20045;-45
2023/05/23 09:24:36;;;;;;;9.57;8.27;;;18.20;99.90;;;;;;5012923;28;20438;-46
2023/05/23 09:27:22;;;;;;;9.10;7.65;;;18.30;99.90;;;;;;5012339;28;20072;-47
2023/05/23 09:30:10;;;;;;;8.80;7.88;;;18.30;99.90;;;;;;5012747;28;20022;-46
2023/05/23 09:32:58;;;;;;;8.82;6.97;;;18.30;99.90;;;;;;5012561;28;20029;-45
2023/05/23 09:35:45;;;;;;;9.40;7.22;;;18.40;99.90;;;;;;5011911;28;20014;-44
2023/05/23 09:38:32;;;;;;;9.82;7.55;;;18.40;99.90;;;;;;5012484;28;20125;-45
2023/05/23 09:41:20;;;;;;;8.70;7.80;;;18.20;99.90;;;;;;5012473;28;20026;-45
2023/05/23 09:44:08;;;;;;;8.02;7.22;;;18.00;99.90;;;;;;5012474;28;20026;-48
2023/05/23 09:46:54;;;;;;;10.35;7.68;;;17.80;99.90;;;;;;5011938;28;20049;-49
2023/05/23 09:49:42;;;;;;;10.38;8.40;;;17.60;99.90;;;;;;5012474;28;20175;-47
2023/05/23 09:52:38;;;;;;;7.93;7.13;;;17.30;99.90;;;;;;5014374;28;20034;-47
2023/05/23 09:55:24;;;;;;;7.88;7.00;;;17.30;99.90;;;;;;5015726;28;20022;-47
2023/05/23 09:58:10;;;;;;;9.85;7.35;;;17.40;99.90;;;;;;5011622;28;20120;-47
2023/05/23 10:01:01;;;;;;;8.35;6.90;;;17.40;99.90;;;;;;5014161;28;20045;-46
2023/05/23 10:03:56;;;;;;;6.72;5.43;;;17.60;99.90;;;;;;5013169;28;20040;-44
2023/05/23 10:06:52;;;;;;;5.82;4.65;;;17.40;99.90;;;;;;5011919;28;20038;-47
2023/05/23 10:09:41;;;;;;;4.15;3.65;;;17.40;99.90;;;;;;5011827;28;20061;-50
2023/05/23 10:12:29;;;;;;;6.97;4.25;;;17.40;99.90;;;;;;5012053;28;20077;-46
2023/05/23 10:15:17;;;;;;;4.50;4.10;;;17.50;99.90;;;;;;5011234;28;20018;-46
2023/05/23 10:18:13;;;;;;;4.07;3.67;;;17.50;99.90;;;;;;5011488;28;20042;-46
2023/05/23 10:21:06;;;;;;;5.68;3.65;;;17.40;99.90;;;;;;5011444;28;20030;-49
2023/05/23 10:23:52;;;;;;;4.22;3.13;;;17.30;99.90;;;;;;5011731;28;20046;-46
2023/05/23 10:26:39;;;;;;;3.42;3.13;;;17.30;99.90;;;;;;5011847;28;20458;-45
2023/05/23 10:29:26;;;;;;;4.63;3.22;;;17.30;99.90;;;;;;5012143;28;20034;-51
2023/05/23 10:32:14;;;;;;;3.53;3.22;;;17.30;99.90;;;;;;5013095;28;20057;-48
2023/05/23 10:35:37;;;;;;;3.88;3.17;;;17.20;99.90;;;;;;5011716;28;20113;-49
2023/05/23 10:38:35;;;;;;;3.55;2.85;;;17.10;99.90;;;;;;5012111;28;20085;-46
2023/05/23 10:42:02;;;;;;;3.40;3.05;;;17.00;99.90;;;;;;5012265;28;20030;-47
2023/05/23 10:44:47;;;;;;;3.65;2.60;;;16.70;99.90;;;;;;5011981;28;20034;-45
2023/05/23 10:47:35;;;;;;;3.92;3.20;;;16.50;99.90;;;;;;5011069;28;20041;-45
2023/05/23 10:50:35;;;;;;;3.35;2.78;;;16.50;99.90;;;;;;5009598;28;20034;-46
2023/05/23 10:53:22;;;;;;;3.28;2.97;;;16.20;99.90;;;;;;5011300;28;20033;-50
2023/05/23 10:56:09;;;;;;;4.18;3.10;;;16.20;99.90;;;;;;5011236;28;20063;-50
2023/05/23 10:58:57;;;;;;;6.15;3.10;;;16.10;99.90;;;;;;5011715;28;20529;-48
2023/05/23 11:01:43;;;;;;;5.95;3.47;;;16.20;99.90;;;;;;5012957;28;20073;-46
2023/05/23 11:04:29;;;;;;;3.50;3.08;;;16.40;99.90;;;;;;5015964;28;20101;-46
2023/05/23 11:07:31;;;;;;;4.05;2.90;;;16.30;99.90;;;;;;5024375;28;20034;-46
2023/05/23 11:10:18;;;;;;;3.85;2.53;;;16.40;99.90;;;;;;5015920;28;20494;-48
2023/05/23 11:13:07;;;;;;;4.10;2.72;;;16.40;99.90;;;;;;5014686;28;20453;-50
2023/05/23 11:15:53;;;;;;;2.40;2.20;;;16.50;99.90;;;;;;5015163;28;20042;-46
2023/05/23 11:18:39;;;;;;;5.35;2.70;;;16.40;99.90;;;;;;5014847;28;20033;-46
2023/05/23 11:21:27;;;;;;;4.85;3.40;;;16.40;99.90;;;;;;5014908;28;20372;-44
2023/05/23 11:24:13;;;;;;;3.85;3.30;;;16.30;99.90;;;;;;5015535;28;20112;-46
2023/05/23 11:27:00;;;;;;;6.18;3.42;;;16.10;99.90;;;;;;5015106;28;20034;-49
2023/05/23 11:30:12;;;;;;;3.90;3.13;;;15.90;99.90;;;;;;5014838;28;20092;-46
2023/05/23 11:32:58;;;;;;;4.65;3.70;;;15.90;99.90;;;;;;5015774;28;20025;-48
2023/05/23 11:35:48;;;;;;;4.38;3.60;;;15.70;99.90;;;;;;5014543;28;20097;-46
2023/05/23 11:38:34;;;;;;;5.10;3.63;;;15.70;99.90;;;;;;5015871;28;20030;-46
2023/05/23 11:41:20;;;;;;;5.00;3.60;;;15.90;99.90;;;;;;5014211;28;20030;-45
2023/05/23 11:44:12;;;;;;;8.10;3.90;;;15.90;99.90;;;;;;5014973;28;20414;-45
2023/05/23 11:47:00;;;;;;;6.65;3.65;;;15.80;99.90;;;;;;5013948;28;20088;-45
2023/05/23 11:49:46;;;;;;;9.68;3.72;;;15.80;99.90;;;;;;5014588;28;20072;-46
2023/05/23 11:52:32;;;;;;;8.38;4.18;;;15.90;99.90;;;;;;5014365;28;20103;-46
2023/05/23 11:55:20;;;;;;;4.50;3.55;;;15.90;99.90;;;;;;5013562;28;20030;-45
2023/05/23 11:58:06;;;;;;;5.65;3.80;;;15.90;99.90;;;;;;5015081;28;20121;-45
2023/05/23 12:00:57;;;;;;;6.75;3.92;;;15.90;99.90;;;;;;5013527;28;20469;-45
2023/05/23 12:03:48;;;;;;;6.35;4.00;;;15.80;99.90;;;;;;5014371;28;20030;-46
2023/05/23 12:06:35;;;;;;;3.90;2.95;;;15.80;99.90;;;;;;5014071;28;20034;-47
2023/05/23 12:09:21;;;;;;;4.88;3.13;;;15.50;99.90;;;;;;5014166;28;20463;-46
2023/05/23 12:12:07;;;;;;;4.05;3.08;;;15.60;99.90;;;;;;5013135;28;20454;-46
2023/05/23 12:14:56;;;;;;;6.40;3.13;;;15.50;99.90;;;;;;5014141;28;20034;-45
2023/05/23 12:17:45;;;;;;;4.40;3.30;;;15.40;99.90;;;;;;5013756;28;20029;-49
2023/05/23 12:20:33;;;;;;;4.03;3.60;;;15.30;99.90;;;;;;5012655;28;20040;-46
2023/05/23 12:23:24;;;;;;;6.30;4.07;;;15.30;99.90;;;;;;5014588;28;20402;-47
2023/05/23 12:26:10;;;;;;;6.38;4.85;;;15.40;99.90;;;;;;5014569;28;20506;-51
2023/05/23 12:28:58;;;;;;;8.73;4.78;;;15.40;99.90;;;;;;5013222;28;20038;-45
2023/05/23 12:31:47;;;;;;;6.18;4.80;;;15.40;99.90;;;;;;5013723;28;20482;-49
2023/05/23 12:34:33;;;;;;;5.97;5.00;;;15.40;99.90;;;;;;5013559;28;20022;-45
2023/05/23 12:37:20;;;;;;;5.57;4.50;;;15.30;99.90;;;;;;5012652;28;20039;-48
2023/05/23 12:40:16;;;;;;;5.30;4.40;;;15.40;99.90;;;;;;5013349;28;20018;-48
2023/05/23 12:43:02;;;;;;;4.97;4.35;;;15.40;99.90;;;;;;5014841;28;20036;-44
2023/05/23 12:45:48;;;;;;;6.25;4.35;;;15.60;99.90;;;;;;5013306;28;20041;-45
2023/05/23 12:48:34;;;;;;;5.28;4.22;;;15.60;99.90;;;;;;5013134;28;20036;-49
2023/05/23 12:51:20;;;;;;;5.47;3.97;;;15.60;99.90;;;;;;5013546;28;20022;-49
2023/05/23 12:54:08;;;;;;;4.85;4.32;;;15.60;99.90;;;;;;5016334;28;20018;-48
2023/05/23 12:56:54;;;;;;;7.13;5.13;;;15.50;99.90;;;;;;5012729;28;20026;-48
2023/05/23 12:59:39;;;;;;;5.95;5.05;;;15.30;99.90;;;;;;5013528;28;20399;-51
2023/05/23 13:02:27;;;;;;;5.90;4.80;;;15.20;99.90;;;;;;5012445;28;20521;-49
2023/05/23 13:05:15;;;;;;;6.60;5.10;;;15.50;99.90;;;;;;5013942;28;20056;-48
2023/05/23 13:08:02;;;;;;;7.38;4.78;;;15.50;99.90;;;;;;5025289;28;20038;-50
2023/05/23 13:10:48;;;;;;;10.45;5.70;;;15.50;99.90;;;;;;5013097;28;20048;-48
2023/05/23 13:13:34;;;;;;;6.63;5.40;;;15.30;99.90;;;;;;5013199;28;20022;-49
2023/05/23 13:16:20;;;;;;;8.73;5.85;;;15.20;99.90;;;;;;5012557;28;20022;-50
2023/05/23 13:19:06;;;;;;;6.20;5.03;;;15.10;99.90;;;;;;5012560;28;20344;-48
2023/05/23 13:21:52;;;;;;;6.32;5.72;;;15.20;99.90;;;;;;5012405;28;20461;-47
2023/05/23 13:24:42;;;;;;;7.35;5.43;;;15.20;99.90;;;;;;5012442;28;20414;-49
2023/05/23 13:27:28;;;;;;;7.22;4.65;;;15.20;99.90;;;;;;5012423;28;20055;-48
2023/05/23 13:30:14;;;;;;;7.32;4.90;;;15.20;99.90;;;;;;5012056;28;20022;-48
2023/05/23 13:33:00;;;;;;;10.20;5.65;;;15.10;99.90;;;;;;5011793;28;20395;-47
2023/05/23 13:35:48;;;;;;;6.18;5.35;;;14.90;99.90;;;;;;5011735;28;20030;-48
2023/05/23 13:38:34;;;;;;;7.97;6.03;;;14.80;99.90;;;;;;5012927;28;20068;-49
2023/05/23 13:41:20;;;;;;;9.63;6.20;;;14.80;99.90;;;;;;5013223;28;20140;-47
2023/05/23 13:44:06;;;;;;;6.75;5.47;;;14.80;99.90;;;;;;5014474;28;20034;-54
2023/05/23 13:46:53;;;;;;;8.23;6.57;;;14.80;99.90;;;;;;5012842;28;20414;-49
2023/05/23 13:49:42;;;;;;;9.77;7.07;;;14.90;99.90;;;;;;5012443;28;20034;-49
2023/05/23 13:52:28;;;;;;;8.70;6.95;;;15.00;99.90;;;;;;5012327;28;20033;-47
2023/05/23 13:55:14;;;;;;;7.65;6.85;;;14.90;99.90;;;;;;5011738;28;20080;-49
2023/05/23 13:58:00;;;;;;;8.10;6.10;;;14.80;99.90;;;;;;5011829;28;20053;-48
2023/05/23 14:00:46;;;;;;;9.15;6.97;;;14.80;99.90;;;;;;5011282;28;20034;-50
2023/05/23 14:03:32;;;;;;;8.27;6.68;;;14.80;99.90;;;;;;5012425;28;20521;-50
2023/05/23 14:06:18;;;;;;;9.15;6.78;;;14.70;99.90;;;;;;5011553;28;20037;-48
2023/05/23 14:09:05;;;;;;;7.85;6.82;;;14.70;99.90;;;;;;5011412;28;20065;-49
2023/05/23 14:11:51;;;;;;;8.90;7.22;;;14.70;99.90;;;;;;5011666;28;20622;-47
2023/05/23 14:14:37;;;;;;;9.55;7.65;;;14.80;99.90;;;;;;5011817;28;20058;-49
2023/05/23 14:17:22;;;;;;;13.20;8.57;;;14.70;99.90;;;;;;5011560;28;20097;-45